createdAt,value
2023-03-03T00:00:38.720Z,26.50
2023-03-03T00:03:42.934Z,24.00
2023-03-03T00:06:45.925Z,29.10
2023-03-03T00:09:48.741Z,24.03
2023-03-03T00:12:51.948Z,26.70
2023-03-03T00:15:57.222Z,27.60
2023-03-03T00:19:01.963Z,25.27
2023-03-03T00:22:17.238Z,25.37
2023-03-03T00:25:29.739Z,24.37
2023-03-03T00:28:42.140Z,20.93
2023-03-03T00:31:44.812Z,22.80
2023-03-03T00:34:49.718Z,27.67
2023-03-03T00:37:56.278Z,26.07
2023-03-03T00:40:59.102Z,26.87
2023-03-03T00:44:01.970Z,24.00
2023-03-03T00:47:31.256Z,24.73
2023-03-03T00:50:36.727Z,24.60
2023-03-03T00:53:39.473Z,24.20
2023-03-03T00:56:42.249Z,29.73
2023-03-03T00:59:44.988Z,26.40
2023-03-03T01:02:48.553Z,25.83
2023-03-03T01:05:53.666Z,23.83
2023-03-03T01:08:57.378Z,28.23
2023-03-03T01:12:00.990Z,23.07
2023-03-03T01:15:03.981Z,25.83
2023-03-03T01:18:07.082Z,23.63
2023-03-03T01:21:12.318Z,30.03
2023-03-03T01:24:15.240Z,24.70
2023-03-03T01:27:18.294Z,26.10
2023-03-03T01:30:21.230Z,25.73
2023-03-03T01:33:23.937Z,24.07
2023-03-03T01:36:29.564Z,27.00
2023-03-03T01:39:32.420Z,26.13
2023-03-03T01:42:35.356Z,25.00
2023-03-03T01:46:06.739Z,24.73
2023-03-03T01:49:15.478Z,27.30
2023-03-03T01:52:27.415Z,23.87
2023-03-03T01:55:34.892Z,31.43
2023-03-03T01:58:42.696Z,22.60
2023-03-03T02:01:48.187Z,24.70
2023-03-03T02:04:51.584Z,24.67
2023-03-03T02:07:55.917Z,22.73
2023-03-03T02:10:59.846Z,26.93
2023-03-03T02:14:02.705Z,29.07
2023-03-03T02:17:05.596Z,27.50
2023-03-03T02:20:14.443Z,25.30
2023-03-03T02:23:28.027Z,26.07
2023-03-03T02:26:34.931Z,28.63
2023-03-03T02:29:37.956Z,30.17
2023-03-03T02:32:40.868Z,27.63
2023-03-03T02:35:44.154Z,24.57
2023-03-03T02:38:52.724Z,25.20
2023-03-03T02:42:02.495Z,31.20
2023-03-03T02:45:06.021Z,25.47
2023-03-03T02:48:08.792Z,27.33
2023-03-03T02:51:11.688Z,28.90
2023-03-03T02:54:16.074Z,28.60
2023-03-03T02:57:20.127Z,29.30
2023-03-03T03:00:23.056Z,28.80
2023-03-03T03:03:25.959Z,31.57
2023-03-03T03:06:28.652Z,30.73
2023-03-03T03:09:31.423Z,30.83
2023-03-03T03:12:35.478Z,23.33
2023-03-03T03:15:38.529Z,26.27
2023-03-03T03:18:41.326Z,25.80
2023-03-03T03:21:44.628Z,28.87
2023-03-03T03:24:47.818Z,26.67
2023-03-03T03:27:52.132Z,24.90
2023-03-03T03:30:55.167Z,27.03
2023-03-03T03:33:57.944Z,29.97
2023-03-03T03:37:00.659Z,28.43
2023-03-03T03:40:03.383Z,32.53
2023-03-03T03:43:08.227Z,30.60
2023-03-03T03:46:10.966Z,29.00
2023-03-03T03:49:14.267Z,26.47
2023-03-03T03:52:17.294Z,29.80
2023-03-03T03:55:20.174Z,26.43
2023-03-03T03:58:24.499Z,26.73
2023-03-03T04:01:27.229Z,26.77
2023-03-03T04:04:29.882Z,28.10
2023-03-03T04:07:32.596Z,27.70
2023-03-03T04:10:35.817Z,35.43
2023-03-03T04:13:40.089Z,23.23
2023-03-03T04:16:42.720Z,28.63
2023-03-03T04:19:45.708Z,29.37
2023-03-03T04:22:48.829Z,26.63
2023-03-03T04:25:51.552Z,26.87
2023-03-03T04:28:59.051Z,31.17
2023-03-03T04:32:01.831Z,27.80
2023-03-03T04:35:08.457Z,26.10
2023-03-03T04:38:11.536Z,28.50
2023-03-03T04:41:14.459Z,25.27
2023-03-03T04:44:18.519Z,29.03
2023-03-03T04:47:21.308Z,29.17
2023-03-03T04:50:24.044Z,27.70
2023-03-03T04:53:27.323Z,33.33
2023-03-03T04:56:32.523Z,30.57
2023-03-03T04:59:36.917Z,28.50
2023-03-03T05:02:39.637Z,27.63
2023-03-03T05:05:42.669Z,26.73
2023-03-03T05:08:45.600Z,23.83
2023-03-03T05:11:48.472Z,27.77
2023-03-03T05:14:52.664Z,31.83
2023-03-03T05:17:56.438Z,26.20
2023-03-03T05:20:59.365Z,26.73
2023-03-03T05:24:02.178Z,32.20
2023-03-03T05:27:05.587Z,29.17
2023-03-03T05:30:11.423Z,32.40
2023-03-03T05:33:16.184Z,28.23
2023-03-03T05:36:19.027Z,30.97
2023-03-03T05:39:21.886Z,29.13
2023-03-03T05:42:24.761Z,34.43
2023-03-03T05:45:29.160Z,33.67
2023-03-03T05:48:31.939Z,28.43
2023-03-03T05:51:34.877Z,36.70
2023-03-03T05:54:37.871Z,35.20
2023-03-03T05:57:40.700Z,32.70
2023-03-03T06:00:44.795Z,36.23
2023-03-03T06:03:47.738Z,34.37
2023-03-03T06:06:50.930Z,35.33
2023-03-03T06:09:53.657Z,39.40
2023-03-03T06:12:56.356Z,36.77
2023-03-03T06:16:00.528Z,32.40
2023-03-03T06:19:03.398Z,30.27
2023-03-03T06:22:06.088Z,33.80
2023-03-03T06:25:09.634Z,38.10
2023-03-03T06:28:13.412Z,33.63
2023-03-03T06:31:17.571Z,35.03
2023-03-03T06:34:20.836Z,39.37
2023-03-03T06:37:23.531Z,32.30
2023-03-03T06:40:26.430Z,32.63
2023-03-03T06:43:29.571Z,38.80
2023-03-03T06:46:33.782Z,30.83
2023-03-03T06:49:36.753Z,32.83
2023-03-03T06:52:39.972Z,28.77
2023-03-03T06:55:44.974Z,26.40
2023-03-03T06:58:47.767Z,28.30
2023-03-03T07:01:52.515Z,34.40
2023-03-03T07:04:57.703Z,27.83
2023-03-03T07:08:00.385Z,30.73
2023-03-03T07:11:10.199Z,31.10
2023-03-03T07:14:17.917Z,31.50
2023-03-03T07:17:24.356Z,31.23
2023-03-03T07:20:35.102Z,33.87
2023-03-03T07:23:42.782Z,27.93
2023-03-03T07:26:45.947Z,29.97
2023-03-03T07:29:51.562Z,30.70
2023-03-03T07:32:57.747Z,27.93
2023-03-03T07:36:01.265Z,26.27
2023-03-03T07:39:17.269Z,30.03
2023-03-03T07:42:23.805Z,26.27
2023-03-03T07:45:29.104Z,29.13
2023-03-03T07:48:37.394Z,26.33
2023-03-03T07:51:42.726Z,26.30
2023-03-03T07:54:47.731Z,21.27
2023-03-03T07:57:54.685Z,24.20
2023-03-03T08:01:27.677Z,22.23
2023-03-03T08:04:42.148Z,22.23
2023-03-03T08:07:45.176Z,19.77
2023-03-03T08:10:50.168Z,23.20
2023-03-03T08:13:53.108Z,20.03
2023-03-03T08:16:56.917Z,23.77
2023-03-03T08:20:01.128Z,18.13
2023-03-03T08:23:03.901Z,17.63
2023-03-03T08:26:07.537Z,22.30
2023-03-03T08:29:12.006Z,19.07
2023-03-03T08:32:15.333Z,17.13
2023-03-03T08:35:19.944Z,18.07
2023-03-03T08:38:23.458Z,18.87
2023-03-03T08:41:26.265Z,19.50
2023-03-03T08:44:29.414Z,18.23
2023-03-03T08:47:32.325Z,20.87
2023-03-03T08:50:36.684Z,18.10
2023-03-03T08:53:39.499Z,19.40
2023-03-03T08:56:42.445Z,15.53
2023-03-03T08:59:47.835Z,18.73
2023-03-03T09:02:52.486Z,19.03
2023-03-03T09:05:57.174Z,19.90
2023-03-03T09:09:00.148Z,22.20
2023-03-03T09:12:14.240Z,24.50
2023-03-03T09:15:21.617Z,20.67
2023-03-03T09:18:32.959Z,21.63
2023-03-03T09:21:37.140Z,18.73
2023-03-03T09:24:39.886Z,18.93
2023-03-03T09:27:42.736Z,18.50
2023-03-03T09:30:49.776Z,18.77
2023-03-03T09:33:55.260Z,20.97
2023-03-03T09:37:00.084Z,21.87
2023-03-03T09:40:33.941Z,20.13
2023-03-03T09:43:43.943Z,18.57
2023-03-03T09:46:59.581Z,22.10
2023-03-03T09:50:15.468Z,20.23
2023-03-03T09:53:34.778Z,19.77
2023-03-03T09:56:43.614Z,21.13
2023-03-03T10:00:09.085Z,23.03
2023-03-03T10:03:39.485Z,20.30
2023-03-03T10:06:49.950Z,20.23
2023-03-03T10:10:17.256Z,20.67
2023-03-03T10:13:38.049Z,20.07
2023-03-03T10:17:17.034Z,21.10
2023-03-03T10:20:40.363Z,22.80
2023-03-03T10:23:58.986Z,25.53
2023-03-03T10:27:19.961Z,23.57
2023-03-03T10:30:41.119Z,26.10
2023-03-03T10:33:55.656Z,25.20
2023-03-03T10:37:04.625Z,23.67
2023-03-03T10:40:17.281Z,21.77
2023-03-03T10:43:42.895Z,25.30
2023-03-03T10:47:08.807Z,23.37
2023-03-03T10:50:19.224Z,22.20
2023-03-03T10:53:33.685Z,25.23
2023-03-03T10:56:53.340Z,24.30
2023-03-03T11:00:09.338Z,22.00
2023-03-03T11:03:50.108Z,22.63
2023-03-03T11:07:01.055Z,21.13
2023-03-03T11:10:23.790Z,22.00
2023-03-03T11:13:37.689Z,23.17
2023-03-03T11:16:58.893Z,23.43
2023-03-03T11:20:06.844Z,20.47
2023-03-03T11:23:41.170Z,24.47
2023-03-03T11:27:00.106Z,21.87
2023-03-03T11:30:19.072Z,21.80
2023-03-03T11:33:28.434Z,22.17
2023-03-03T11:36:36.088Z,22.93
2023-03-03T11:39:40.660Z,20.40
2023-03-03T11:42:55.008Z,20.13
2023-03-03T11:46:04.909Z,20.63
2023-03-03T11:49:17.275Z,20.83
2023-03-03T11:52:31.133Z,24.40
2023-03-03T11:55:38.254Z,20.43
2023-03-03T11:58:46.064Z,18.87
2023-03-03T12:01:57.424Z,19.63
2023-03-03T12:05:11.735Z,18.80
2023-03-03T12:08:27.230Z,18.03
2023-03-03T12:11:39.757Z,20.57
2023-03-03T12:15:01.115Z,23.60
2023-03-03T12:18:24.833Z,19.87
2023-03-03T12:21:46.067Z,21.87
2023-03-03T12:25:20.401Z,21.37
2023-03-03T12:28:27.731Z,20.90
2023-03-03T12:31:47.306Z,19.63
2023-03-03T12:34:54.844Z,22.27
2023-03-03T12:38:07.453Z,18.87
2023-03-03T12:41:16.179Z,20.08
2023-03-03T12:44:25.250Z,20.42
2023-03-03T12:47:31.075Z,19.70
2023-03-03T12:50:44.844Z,19.45
2023-03-03T12:54:09.187Z,21.98
2023-03-03T12:57:27.522Z,22.50
2023-03-03T13:00:42.294Z,22.05
2023-03-03T13:03:56.128Z,21.42
2023-03-03T13:07:03.702Z,20.50
2023-03-03T13:10:18.197Z,19.25
2023-03-03T13:13:29.474Z,22.73
2023-03-03T13:16:41.429Z,23.50
2023-03-03T13:19:49.094Z,19.00
2023-03-03T13:22:56.736Z,21.80
2023-03-03T13:26:07.849Z,22.48
2023-03-03T13:29:16.469Z,20.60
2023-03-03T13:32:23.318Z,19.98
2023-03-03T13:35:39.347Z,20.88
2023-03-03T13:38:48.021Z,22.15
2023-03-03T13:41:58.352Z,24.30
2023-03-03T13:45:04.074Z,21.50
2023-03-03T13:48:23.739Z,21.30
2023-03-03T13:51:37.290Z,23.27
2023-03-03T13:55:02.857Z,18.98
2023-03-03T13:58:22.364Z,24.83
2023-03-03T14:01:33.342Z,22.60
2023-03-03T14:04:48.249Z,22.55
2023-03-03T14:07:57.101Z,19.98
2023-03-03T14:11:11.431Z,23.27
2023-03-03T14:14:32.413Z,22.63
2023-03-03T14:17:42.629Z,20.25
2023-03-03T14:20:49.272Z,25.95
2023-03-03T14:24:00.586Z,23.30
2023-03-03T14:27:24.260Z,22.67
2023-03-03T14:30:35.197Z,23.85
2023-03-03T14:33:38.234Z,23.52
2023-03-03T14:36:43.945Z,21.85
2023-03-03T14:39:51.634Z,21.55
2023-03-03T14:42:56.595Z,26.90
2023-03-03T14:46:33.620Z,26.65
2023-03-03T14:49:38.562Z,25.58
2023-03-03T14:52:41.508Z,20.75
2023-03-03T14:55:46.216Z,24.55
2023-03-03T14:58:49.209Z,24.13
2023-03-03T15:01:59.588Z,21.77
2023-03-03T15:05:21.158Z,22.67
2023-03-03T15:08:32.473Z,24.08
2023-03-03T15:11:37.431Z,27.63
2023-03-03T15:14:45.981Z,22.20
2023-03-03T15:17:59.188Z,28.80
2023-03-03T15:21:06.451Z,22.77
2023-03-03T15:24:19.065Z,23.10
2023-03-03T15:27:28.037Z,28.13
2023-03-03T15:30:37.241Z,25.57
2023-03-03T15:33:48.031Z,23.47
2023-03-03T15:36:56.824Z,25.10
2023-03-03T15:40:06.095Z,23.05
2023-03-03T15:43:21.326Z,24.73
2023-03-03T15:46:37.161Z,24.88
2023-03-03T15:50:10.592Z,25.00
2023-03-03T15:53:38.113Z,26.15
2023-03-03T15:56:48.036Z,26.65
2023-03-03T16:00:16.177Z,24.37
2023-03-03T16:03:24.818Z,25.60
2023-03-03T16:06:38.578Z,30.33
2023-03-03T16:09:57.467Z,23.63
2023-03-03T16:13:08.482Z,26.30
2023-03-03T16:16:25.878Z,23.47
2023-03-03T16:19:41.224Z,24.47
2023-03-03T16:22:57.358Z,23.07
2023-03-03T16:26:27.784Z,26.77
2023-03-03T16:29:42.460Z,26.07
2023-03-03T16:32:50.664Z,25.10
2023-03-03T16:36:04.596Z,24.77
2023-03-03T16:39:16.316Z,23.67
2023-03-03T16:42:26.561Z,22.17
2023-03-03T16:45:36.555Z,22.17
2023-03-03T16:48:46.864Z,21.40
2023-03-03T16:51:54.861Z,22.80
2023-03-03T16:55:06.128Z,20.57
2023-03-03T16:58:23.269Z,24.27
2023-03-03T17:01:33.292Z,23.43
2023-03-03T17:04:42.469Z,24.20
2023-03-03T17:07:55.470Z,20.07
2023-03-03T17:11:05.711Z,25.47
2023-03-03T17:14:19.934Z,25.03
2023-03-03T17:17:32.722Z,23.60
2023-03-03T17:20:40.700Z,21.83
2023-03-03T17:23:52.808Z,22.37
2023-03-03T17:27:13.598Z,23.97
2023-03-03T17:30:22.467Z,23.10
2023-03-03T17:33:59.255Z,22.27
2023-03-03T17:37:16.837Z,21.53
2023-03-03T17:40:42.464Z,24.83
2023-03-03T17:43:57.552Z,23.53
2023-03-03T17:47:05.453Z,22.27
2023-03-03T17:50:23.138Z,22.00
2023-03-03T17:53:51.189Z,21.43
2023-03-03T17:57:06.192Z,23.80
2023-03-03T18:00:25.749Z,21.80
2023-03-03T18:04:04.261Z,24.17
2023-03-03T18:07:29.958Z,25.70
2023-03-03T18:10:53.214Z,23.80
2023-03-03T18:14:31.283Z,21.67
2023-03-03T18:17:49.141Z,22.03
2023-03-03T18:21:01.396Z,25.53
2023-03-03T18:24:31.724Z,24.60
2023-03-03T18:27:36.970Z,23.97
2023-03-03T18:30:56.991Z,26.90
2023-03-03T18:34:09.777Z,26.00
2023-03-03T18:37:37.760Z,25.50
2023-03-03T18:40:51.813Z,27.13
2023-03-03T18:44:00.473Z,29.77
2023-03-03T18:47:03.289Z,28.33
2023-03-03T18:50:17.397Z,28.93
2023-03-03T18:53:24.790Z,26.77
2023-03-03T18:56:46.008Z,26.67
2023-03-03T18:59:58.383Z,32.80
2023-03-03T19:03:01.525Z,26.43
2023-03-03T19:06:10.221Z,30.20
2023-03-03T19:09:18.836Z,28.73
2023-03-03T19:12:52.019Z,28.03
2023-03-03T19:15:59.243Z,29.17
2023-03-03T19:19:07.393Z,26.90
2023-03-03T19:22:25.622Z,29.37
2023-03-03T19:25:31.741Z,30.57
2023-03-03T19:28:43.496Z,30.93
2023-03-03T19:31:54.301Z,26.73
2023-03-03T19:35:09.753Z,31.30
2023-03-03T19:38:26.215Z,29.80
2023-03-03T19:41:45.621Z,28.43
2023-03-03T19:45:03.827Z,29.33
2023-03-03T19:48:15.735Z,30.73
2023-03-03T19:51:29.324Z,32.10
2023-03-03T19:54:49.165Z,27.37
2023-03-03T19:58:03.597Z,30.50
2023-03-03T20:01:19.050Z,28.83
2023-03-03T20:04:54.037Z,24.57
2023-03-03T20:08:02.889Z,28.03
2023-03-03T20:11:13.448Z,26.73
2023-03-03T20:14:32.249Z,29.57
2023-03-03T20:18:10.701Z,26.93
2023-03-03T20:21:25.311Z,22.27
2023-03-03T20:24:59.978Z,30.37
2023-03-03T20:28:14.167Z,28.47
2023-03-03T20:31:23.503Z,25.50
2023-03-03T20:34:38.976Z,26.33
2023-03-03T20:37:53.631Z,23.67
2023-03-03T20:41:06.505Z,28.70
2023-03-03T20:44:19.277Z,24.23
2023-03-03T20:47:34.412Z,24.40
2023-03-03T20:50:51.268Z,26.33
2023-03-03T20:54:07.389Z,22.77
2023-03-03T20:57:18.000Z,24.17
2023-03-03T21:00:26.073Z,26.90
2023-03-03T21:03:34.255Z,23.43
2023-03-03T21:06:41.581Z,22.90
2023-03-03T21:09:47.412Z,26.20
2023-03-03T21:12:50.367Z,24.13
2023-03-03T21:15:56.998Z,29.70
2023-03-03T21:19:03.102Z,25.03
2023-03-03T21:22:07.319Z,24.07
2023-03-03T21:25:13.609Z,26.73
2023-03-03T21:28:22.426Z,24.83
2023-03-03T21:31:25.435Z,21.67
2023-03-03T21:34:30.661Z,23.57
2023-03-03T21:37:52.262Z,24.23
2023-03-03T21:41:01.255Z,25.67
2023-03-03T21:44:31.172Z,24.97
2023-03-03T21:47:34.018Z,24.93
2023-03-03T21:50:36.932Z,24.63
2023-03-03T21:53:41.415Z,22.97
2023-03-03T21:56:44.305Z,22.90
2023-03-03T21:59:47.424Z,22.40
2023-03-03T22:02:50.292Z,24.73
2023-03-03T22:05:53.586Z,22.07
2023-03-03T22:08:58.013Z,24.90
2023-03-03T22:12:00.929Z,24.53
2023-03-03T22:15:04.056Z,23.53
2023-03-03T22:18:07.028Z,25.63
2023-03-03T22:21:09.941Z,21.80
2023-03-03T22:24:14.186Z,24.70
2023-03-03T22:27:17.014Z,22.77
2023-03-03T22:30:20.050Z,23.63
2023-03-03T22:33:23.278Z,22.10
2023-03-03T22:36:26.236Z,20.53
2023-03-03T22:39:30.581Z,27.10
2023-03-03T22:42:33.548Z,22.90
2023-03-03T22:45:36.557Z,25.73
2023-03-03T22:48:40.004Z,27.00
2023-03-03T22:51:43.258Z,26.83
2023-03-03T22:54:47.458Z,24.33
2023-03-03T22:57:50.356Z,23.67
2023-03-03T23:00:54.497Z,24.73
2023-03-03T23:03:57.383Z,23.83
2023-03-03T23:07:00.384Z,24.73
2023-03-03T23:10:05.833Z,23.53
2023-03-03T23:13:09.004Z,22.97
2023-03-03T23:16:12.085Z,21.60
2023-03-03T23:19:15.008Z,24.30
2023-03-03T23:22:18.746Z,22.83
2023-03-03T23:25:24.167Z,23.27
2023-03-03T23:28:26.918Z,19.80
2023-03-03T23:31:30.585Z,25.57
2023-03-03T23:34:33.766Z,22.20
2023-03-03T23:37:36.732Z,19.60
2023-03-03T23:40:40.937Z,21.43
2023-03-03T23:43:43.793Z,21.17
2023-03-03T23:46:46.610Z,21.13
2023-03-03T23:49:49.377Z,30.17
2023-03-03T23:52:53.046Z,23.20
2023-03-03T23:55:57.230Z,22.30
2023-03-03T23:58:59.944Z,21.70
